Time;durP1;ratioP1;P1;durP2;ratioP2;P2;SDS_P1;SDS_P2;PMS_P1;PMS_P2;Temp;Humidity;BMP_temperature;BMP_pressure;BME280_temperature;BME280_humidity;BME280_pressure;Samples;Min_cycle;Max_cycle;Signal;HPM_P1;HPM_P2
2021/06/25 00:01:03;;;;;;;22.77;14.75;;;;;;;26.07;60.24;99582.47;4802667;29;20054;-58
2021/06/25 00:03:29;;;;;;;22.65;15.75;;;;;;;26.07;61.21;99585.97;4802287;29;20525;-58
2021/06/25 00:06:20;;;;;;;23.58;15.30;;;;;;;26.05;60.31;99595.13;5725072;24;20029;31
2021/06/25 00:08:45;;;;;;;18.70;14.48;;;;;;;26.03;60.77;99587.25;4762849;30;20150;-60
2021/06/25 00:11:12;;;;;;;26.85;16.30;;;;;;;26.01;60.81;99586.56;4767134;30;20048;-59
2021/06/25 00:13:38;;;;;;;26.20;16.10;;;;;;;25.97;60.96;99574.56;4765040;30;20450;-57
2021/06/25 00:16:04;;;;;;;23.00;15.90;;;;;;;25.95;61.51;99586.38;4750664;30;20059;-58
2021/06/25 00:18:29;;;;;;;29.98;16.55;;;;;;;25.94;61.43;99582.03;4763085;30;20044;-58
2021/06/25 00:20:55;;;;;;;26.52;16.27;;;;;;;25.89;61.40;99579.81;4765294;30;20065;-58
2021/06/25 00:23:22;;;;;;;23.27;15.10;;;;;;;25.90;61.14;99564.69;4762183;30;20559;-58
2021/06/25 00:25:47;;;;;;;19.27;15.45;;;;;;;25.91;62.20;99567.16;4762463;30;20070;-57
2021/06/25 00:28:13;;;;;;;19.52;16.42;;;;;;;25.90;62.23;99572.66;4762451;30;20511;-58
2021/06/25 00:30:39;;;;;;;21.65;15.70;;;;;;;25.85;62.22;99573.13;4743240;30;20428;-58
2021/06/25 00:33:04;;;;;;;29.85;16.77;;;;;;;25.89;61.72;99597.63;4763966;30;20040;-57
2021/06/25 00:35:30;;;;;;;24.52;15.60;;;;;;;25.89;61.94;99598.47;4763774;30;20044;-58
2021/06/25 00:37:56;;;;;;;22.90;16.80;;;;;;;25.90;62.08;99596.66;4765691;30;20160;-58
2021/06/25 00:40:21;;;;;;;26.60;15.70;;;;;;;25.89;62.68;99586.97;4761866;30;20044;-58
2021/06/25 00:42:47;;;;;;;24.83;16.20;;;;;;;25.83;63.07;99582.25;4765475;30;20054;-58
2021/06/25 00:45:18;;;;;;;20.77;16.17;;;;;;;25.77;63.65;99586.34;4763403;30;20558;-58
2021/06/25 00:47:46;;;;;;;20.90;15.48;;;;;;;25.71;63.36;99579.81;4765723;30;20519;-58
2021/06/25 00:50:13;;;;;;;18.25;14.57;;;;;;;25.68;63.44;99564.16;4764849;30;20047;-58
2021/06/25 00:52:39;;;;;;;18.75;13.52;;;;;;;25.67;62.96;99559.78;4749831;30;20044;-57
2021/06/25 00:55:06;;;;;;;21.20;15.48;;;;;;;25.64;63.59;99572.59;4764159;30;20087;-58
2021/06/25 00:57:32;;;;;;;29.08;15.55;;;;;;;25.63;63.14;99573.56;4766037;30;20048;-58
2021/06/25 00:59:57;;;;;;;14.93;12.55;;;;;;;25.60;63.31;99560.53;4762445;30;20476;-58
2021/06/25 01:02:23;;;;;;;17.42;11.73;;;;;;;25.59;63.13;99550.91;4764293;30;20048;-58
2021/06/25 01:04:50;;;;;;;13.05;11.25;;;;;;;25.56;62.85;99553.84;4766870;30;20047;-57
2021/06/25 01:07:16;;;;;;;16.05;11.02;;;;;;;25.56;62.48;99557.34;4766721;30;20056;-59
2021/06/25 01:09:43;;;;;;;16.20;10.38;;;;;;;25.56;62.67;99551.19;4764635;30;20067;-58
2021/06/25 01:12:10;;;;;;;14.20;9.93;;;;;;;25.56;62.08;99553.84;4763764;30;20047;-59
2021/06/25 01:14:37;;;;;;;9.85;8.82;;;;;;;25.55;61.41;99533.50;4765210;30;20802;-58
2021/06/25 01:17:06;;;;;;;14.38;8.40;;;;;;;25.54;61.47;99535.31;4765187;30;20052;-57
2021/06/25 01:19:31;;;;;;;14.73;8.80;;;;;;;25.53;61.32;99536.34;4762399;30;20469;-59
2021/06/25 01:21:57;;;;;;;11.93;8.77;;;;;;;25.49;61.19;99537.59;4762216;30;20047;-59
2021/06/25 01:24:23;;;;;;;12.18;8.73;;;;;;;25.50;61.18;99533.13;4765968;30;20092;-59
2021/06/25 01:26:49;;;;;;;16.13;8.80;;;;;;;25.48;61.03;99532.44;4765530;30;20074;-57
2021/06/25 01:29:14;;;;;;;13.70;9.27;;;;;;;25.47;61.13;99534.28;4760108;30;20043;-58
2021/06/25 01:31:40;;;;;;;16.38;9.48;;;;;;;25.46;61.56;99543.25;4763438;30;20048;-56
2021/06/25 01:34:06;;;;;;;14.00;8.68;;;;;;;25.46;62.03;99537.06;4756535;30;20060;-60
2021/06/25 01:39:28;;;;;;;12.30;9.30;;;;;;;25.39;61.98;99539.50;4797649;24;20125;-57
2021/06/25 01:41:53;;;;;;;13.35;9.35;;;;;;;25.37;61.89;99541.50;4797618;29;20101;-58
2021/06/25 01:44:19;;;;;;;17.52;9.60;;;;;;;25.35;62.16;99547.94;4799521;29;20517;-58
2021/06/25 01:46:45;;;;;;;13.15;9.57;;;;;;;25.31;62.06;99540.25;4800647;29;20073;-58
2021/06/25 01:49:12;;;;;;;16.77;8.80;;;;;;;25.30;61.73;99551.06;4797253;29;20062;-57
2021/06/25 01:51:37;;;;;;;14.75;9.98;;;;;;;25.28;61.85;99547.69;4784063;29;20074;-57
2021/06/25 01:54:04;;;;;;;14.38;8.95;;;;;;;25.26;62.14;99557.66;4800751;29;20430;-59
2021/06/25 01:56:29;;;;;;;16.75;9.05;;;;;;;25.25;62.17;99556.81;4797760;29;20055;-58
2021/06/25 01:58:55;;;;;;;17.45;9.30;;;;;;;25.23;62.24;99555.28;4795407;29;20047;-58
2021/06/25 02:01:20;;;;;;;15.55;8.50;;;;;;;25.23;62.38;99557.94;4799554;29;20051;-55
2021/06/25 02:03:48;;;;;;;13.52;8.77;;;;;;;25.19;62.55;99562.75;4799239;29;20065;-58
2021/06/25 02:06:14;;;;;;;13.20;8.50;;;;;;;25.19;62.50;99560.06;4798873;29;20052;-59
2021/06/25 02:08:41;;;;;;;15.32;9.23;;;;;;;25.16;62.72;99563.03;4793363;29;20410;-58
2021/06/25 02:11:08;;;;;;;13.32;9.35;;;;;;;25.13;63.04;99563.31;4804599;29;20050;-59
2021/06/25 02:13:33;;;;;;;15.82;9.90;;;;;;;25.12;63.32;99558.19;4796003;29;20068;-58
2021/06/25 02:15:59;;;;;;;10.88;9.27;;;;;;;25.11;63.10;99554.69;4804522;29;20047;-59
2021/06/25 02:18:25;;;;;;;12.90;9.20;;;;;;;25.10;63.31;99555.66;4800783;29;20506;-59
2021/06/25 02:20:50;;;;;;;16.23;9.40;;;;;;;25.10;63.85;99560.13;4786687;29;20073;-58
2021/06/25 02:23:16;;;;;;;13.57;9.95;;;;;;;25.09;63.71;99548.66;4805071;29;20074;-58
2021/06/25 02:25:42;;;;;;;12.68;9.95;;;;;;;25.09;63.57;99546.00;4771614;29;20082;-58
2021/06/25 02:28:08;;;;;;;15.82;9.80;;;;;;;25.11;63.82;99545.84;4799050;29;20043;-58
2021/06/25 02:30:34;;;;;;;13.73;9.57;;;;;;;25.11;64.20;99538.72;4759059;29;20043;-59
2021/06/25 02:33:00;;;;;;;16.25;9.48;;;;;;;25.12;63.20;99539.53;4799659;29;20598;-59
2021/06/25 02:35:26;;;;;;;21.33;9.45;;;;;;;25.13;63.78;99536.72;4803164;29;20211;-58
2021/06/25 02:37:55;;;;;;;21.50;9.85;;;;;;;25.13;63.66;99534.06;4795737;29;20058;-58
2021/06/25 02:40:21;;;;;;;12.27;10.38;;;;;;;25.16;63.70;99538.25;4803207;29;20043;-57
2021/06/25 02:42:47;;;;;;;24.38;13.77;;;;;;;25.17;63.54;99526.63;4801798;29;20413;-58
2021/06/25 02:45:12;;;;;;;13.27;10.30;;;;;;;25.21;64.12;99531.50;4803667;29;20042;-58
2021/06/25 02:47:38;;;;;;;18.90;9.80;;;;;;;25.23;63.76;99524.19;4796057;29;20145;-57
2021/06/25 02:50:06;;;;;;;19.55;11.07;;;;;;;25.25;63.38;99526.72;4803212;29;20125;-60
2021/06/25 02:52:32;;;;;;;13.07;9.20;;;;;;;25.28;62.57;99531.72;4797052;29;20047;-60
2021/06/25 02:54:58;;;;;;;21.85;10.50;;;;;;;25.31;62.44;99534.94;4802610;29;20141;-59
2021/06/25 02:57:23;;;;;;;14.95;8.70;;;;;;;25.35;61.68;99532.81;4799448;29;20055;-59
2021/06/25 02:59:49;;;;;;;19.98;8.93;;;;;;;25.37;61.75;99533.50;4802172;29;20049;-59
2021/06/25 03:02:15;;;;;;;17.38;8.35;;;;;;;25.38;61.39;99545.00;4803757;29;20049;-59
2021/06/25 03:04:40;;;;;;;11.80;8.68;;;;;;;25.40;61.19;99549.16;4791382;29;20038;-58
2021/06/25 03:10:04;;;;;;;19.02;11.15;;;;;;;25.50;60.87;99543.78;5007784;24;20063;-58
2021/06/25 03:12:29;;;;;;;18.25;9.35;;;;;;;25.52;61.63;99544.47;4795989;29;20426;-59
2021/06/25 03:14:55;;;;;;;18.13;9.00;;;;;;;25.54;61.43;99548.63;4790849;29;20038;-60
2021/06/25 03:17:21;;;;;;;18.50;10.30;;;;;;;25.58;61.27;99550.06;4801295;29;20157;-59
2021/06/25 03:19:46;;;;;;;14.07;8.52;;;;;;;25.62;61.00;99553.25;4786897;29;20067;-59
2021/06/25 03:22:12;;;;;;;21.05;9.40;;;;;;;25.66;61.08;99543.97;4775220;30;20043;-57
2021/06/25 03:24:37;;;;;;;8.07;6.93;;;;;;;25.69;60.56;99539.19;4769750;30;20053;-58
2021/06/25 03:27:03;;;;;;;13.10;8.63;;;;;;;25.71;60.69;99531.03;4787042;29;20043;-57
2021/06/25 03:29:29;;;;;;;14.05;9.10;;;;;;;25.74;61.03;99536.06;4778232;29;20529;-57
2021/06/25 03:31:55;;;;;;;16.05;7.80;;;;;;;25.78;60.46;99528.59;4778844;30;20043;-58
2021/06/25 03:34:21;;;;;;;12.45;8.43;;;;;;;25.81;60.41;99526.44;4780538;30;20070;-58
2021/06/25 03:36:46;;;;;;;12.77;7.88;;;;;;;25.84;60.41;99531.50;4783753;29;20043;-56
2021/06/25 03:39:12;;;;;;;12.55;8.20;;;;;;;25.84;60.65;99528.81;4780273;29;20077;-57
2021/06/25 03:41:38;;;;;;;11.63;7.93;;;;;;;25.85;60.65;99522.53;4777397;29;21444;-57
2021/06/25 03:44:03;;;;;;;12.88;8.77;;;;;;;25.88;60.75;99535.50;4781151;30;20046;-62
2021/06/25 03:46:29;;;;;;;9.88;7.78;;;;;;;25.90;60.87;99536.22;4778899;30;20411;-59
2021/06/25 03:48:55;;;;;;;18.63;8.65;;;;;;;25.94;60.52;99526.91;4777450;30;20549;-59
2021/06/25 03:51:20;;;;;;;10.50;8.00;;;;;;;25.95;59.57;99531.25;4777295;29;20043;-54
2021/06/25 03:53:47;;;;;;;15.82;8.93;;;;;;;26.01;59.54;99529.81;4765129;30;20502;-58
2021/06/25 03:56:13;;;;;;;14.10;9.63;;;;;;;26.04;60.27;99527.66;4775196;29;20058;-59
2021/06/25 03:58:44;;;;;;;13.90;8.50;;;;;;;26.08;60.06;99522.84;4777877;29;20051;-60
2021/06/25 04:01:10;;;;;;;8.98;7.30;;;;;;;26.13;59.56;99525.88;4772331;30;20050;-59
2021/06/25 04:03:36;;;;;;;14.70;8.20;;;;;;;26.17;59.37;99538.72;4781393;30;20043;-57
2021/06/25 04:06:04;;;;;;;15.65;9.10;;;;;;;26.21;59.45;99536.63;4767211;30;20051;-58
2021/06/25 04:08:31;;;;;;;10.30;7.55;;;;;;;26.25;58.62;99532.69;4766182;30;20054;-59
2021/06/25 04:10:57;;;;;;;16.08;9.00;;;;;;;26.32;59.11;99527.56;4769181;29;20051;-52
2021/06/25 04:13:24;;;;;;;11.75;7.70;;;;;;;26.36;58.35;99537.75;4776676;30;20049;-53
2021/06/25 04:15:50;;;;;;;10.13;8.00;;;;;;;26.44;58.13;99527.13;4775611;29;20054;-53
2021/06/25 04:21:11;;;;;;;10.40;7.60;;;;;;;26.69;56.90;99524.63;4972876;24;20067;-55
2021/06/25 04:23:37;;;;;;;11.30;8.57;;;;;;;26.77;57.20;99530.81;4789415;29;20507;-55
2021/06/25 04:26:03;;;;;;;16.50;7.78;;;;;;;26.85;56.27;99532.69;4790849;29;20093;-55
2021/06/25 04:28:29;;;;;;;16.13;8.18;;;;;;;26.89;56.34;99510.06;4767652;30;20055;-53
2021/06/25 04:30:55;;;;;;;13.18;7.60;;;;;;;26.95;56.85;99517.41;4787707;29;20081;-55
2021/06/25 04:33:21;;;;;;;12.15;7.68;;;;;;;26.97;56.75;99513.59;4803567;29;20074;-53
2021/06/25 04:35:48;;;;;;;14.52;8.60;;;;;;;27.02;55.97;99518.44;4793306;29;20085;-55
2021/06/25 04:38:14;;;;;;;13.35;7.32;;;;;;;27.08;54.85;99509.78;4772485;29;20051;-54
2021/06/25 04:40:42;;;;;;;9.77;8.30;;;;;;;27.16;55.32;99509.81;4789046;29;20568;-53
2021/06/25 04:43:10;;;;;;;11.95;8.13;;;;;;;27.23;56.11;99518.00;4781140;29;20678;-58
2021/06/25 04:45:36;;;;;;;11.80;8.15;;;;;;;27.25;55.50;99518.69;4782101;29;20051;-58
2021/06/25 04:48:06;;;;;;;10.40;8.25;;;;;;;27.30;54.80;99530.53;4765673;30;20047;-59
2021/06/25 04:50:32;;;;;;;11.75;8.65;;;;;;;27.38;54.27;99530.56;5255445;24;20746;-56
2021/06/25 04:52:58;;;;;;;15.32;8.32;;;;;;;27.48;55.00;99514.38;4797800;29;20038;-57
2021/06/25 04:55:24;;;;;;;16.52;9.50;;;;;;;27.54;53.85;99511.06;4798056;29;20447;-56
2021/06/25 04:57:54;;;;;;;14.43;8.60;;;;;;;27.61;53.88;99511.25;4796541;29;20046;-57
2021/06/25 05:00:21;;;;;;;14.77;8.15;;;;;;;27.71;54.33;99502.09;4797006;29;20047;-58
2021/06/25 05:02:47;;;;;;;15.23;8.23;;;;;;;27.76;54.92;99496.25;4796528;29;20039;-60
2021/06/25 05:05:14;;;;;;;11.82;8.35;;;;;;;27.76;54.76;99505.09;4799252;29;20050;-59
2021/06/25 05:07:40;;;;;;;14.23;11.38;;;;;;;27.88;54.21;99507.44;4796113;29;20161;-60
2021/06/25 05:10:06;;;;;;;13.38;8.40;;;;;;;27.97;54.89;99509.94;4795600;29;20046;-60
2021/06/25 05:12:32;;;;;;;13.68;9.57;;;;;;;28.00;55.11;99506.91;4797379;29;20054;-57
2021/06/25 05:14:57;;;;;;;12.10;8.90;;;;;;;28.08;53.05;99511.44;4797660;29;20129;-59
2021/06/25 05:17:26;;;;;;;13.85;8.73;;;;;;;28.12;54.30;99508.28;4796561;29;20080;-59
2021/06/25 05:19:52;;;;;;;17.23;8.50;;;;;;;28.18;53.16;99514.78;4798046;29;20043;-59
2021/06/25 05:22:17;;;;;;;12.98;8.57;;;;;;;28.27;52.78;99508.41;4797087;29;20558;-58
2021/06/25 05:24:43;;;;;;;13.18;8.23;;;;;;;28.33;52.65;99504.22;4797255;29;20047;-57
2021/06/25 05:27:09;;;;;;;12.30;8.20;;;;;;;28.37;52.67;99501.03;4797989;29;20042;-59
2021/06/25 05:29:34;;;;;;;14.38;8.05;;;;;;;28.42;52.88;99511.25;4797246;29;20054;-60
2021/06/25 05:32:01;;;;;;;16.70;8.20;;;;;;;28.46;53.14;99516.09;5261221;24;20640;-60
2021/06/25 05:34:27;;;;;;;13.00;8.18;;;;;;;28.49;53.05;99525.59;4783040;30;20122;-59
2021/06/25 05:36:54;;;;;;;15.00;9.00;;;;;;;28.56;52.27;99522.06;4786465;29;20193;-59
2021/06/25 05:39:19;;;;;;;15.55;10.43;;;;;;;28.64;52.24;99530.06;4787568;30;20047;-60
2021/06/25 05:41:45;;;;;;;11.70;8.20;;;;;;;28.73;51.57;99533.59;4787417;29;20051;-60
2021/06/25 05:44:11;;;;;;;14.77;9.70;;;;;;;28.82;51.97;99531.72;4783338;29;20447;-59
2021/06/25 05:46:37;;;;;;;15.45;9.48;;;;;;;28.91;51.34;99531.50;4782587;29;20154;-60
2021/06/25 05:49:02;;;;;;;15.32;9.50;;;;;;;29.01;51.20;99531.31;4780045;29;20062;-65
2021/06/25 05:51:28;;;;;;;13.40;8.75;;;;;;;29.16;51.03;99534.06;4784220;29;20055;-63
2021/06/25 05:53:53;;;;;;;12.90;9.13;;;;;;;29.23;50.43;99529.69;4787484;29;20043;-57
2021/06/25 05:56:19;;;;;;;19.40;14.10;;;;;;;29.32;50.46;99537.53;4781951;29;20138;-61
2021/06/25 05:58:45;;;;;;;16.90;9.30;;;;;;;29.40;50.30;99531.31;4787302;29;20055;-61
2021/06/25 06:01:10;;;;;;;9.88;8.60;;;;;;;29.51;49.89;99535.44;4788788;29;20043;-60
2021/06/25 06:03:37;;;;;;;12.77;9.05;;;;;;;29.61;50.42;99534.19;4787044;29;20055;-61
2021/06/25 06:06:05;;;;;;;10.60;9.38;;;;;;;29.71;50.20;99539.31;4785498;29;20059;-60
2021/06/25 06:08:31;;;;;;;13.60;8.85;;;;;;;29.77;49.90;99538.59;4769995;30;20501;-62
2021/06/25 06:10:56;;;;;;;14.60;8.65;;;;;;;29.88;49.57;99536.34;4783263;29;20051;-62
2021/06/25 06:13:22;;;;;;;12.57;8.68;;;;;;;30.03;48.92;99547.13;4787643;29;20526;-65
2021/06/25 06:15:48;;;;;;;17.23;8.65;;;;;;;30.15;48.94;99552.88;4786242;29;20550;-60
2021/06/25 06:18:26;;;;;;;13.15;8.85;;;;;;;30.24;49.20;99554.50;4786292;29;20055;-61
2021/06/25 06:20:52;;;;;;;13.32;9.02;;;;;;;30.34;49.07;99554.22;4786336;29;20059;-63
2021/06/25 06:31:33;;;;;;;18.63;9.57;;;;;;;30.97;46.82;99568.00;4784820;29;20047;-62
2021/06/25 06:34:06;;;;;;;13.17;7.70;;;;;;;31.18;45.39;99587.91;4768718;30;20184;-63
2021/06/25 06:36:35;;;;;;;13.82;8.60;;;;;;;31.46;45.50;99589.72;4769204;30;21196;-71
2021/06/25 06:39:04;;;;;;;12.93;8.70;;;;;;;31.60;44.51;99552.28;4785138;29;20047;-73
